createdAt,value
2022-10-14T00:01:13.607Z,35.50
2022-10-14T00:03:41.113Z,37.80
2022-10-14T00:06:13.028Z,31.30
2022-10-14T00:08:40.579Z,34.90
2022-10-14T00:11:17.349Z,35.50
2022-10-14T00:13:44.754Z,40.70
2022-10-14T00:16:30.549Z,32.90
2022-10-14T00:18:58.755Z,31.60
2022-10-14T00:21:27.373Z,36.60
2022-10-14T00:23:54.216Z,37.00
2022-10-14T00:26:31.127Z,39.50
2022-10-14T00:28:59.017Z,41.10
2022-10-14T00:31:26.151Z,33.70
2022-10-14T00:33:52.631Z,31.40
2022-10-14T00:36:22.533Z,34.30
2022-10-14T00:38:49.233Z,32.90
2022-10-14T00:41:21.577Z,32.30
2022-10-14T00:43:54.742Z,38.10
2022-10-14T00:46:22.553Z,35.70
2022-10-14T00:48:49.301Z,34.20
2022-10-14T00:51:16.031Z,39.80
2022-10-14T00:53:44.234Z,30.40
2022-10-14T00:56:15.315Z,30.60
2022-10-14T00:58:43.404Z,38.00
2022-10-14T01:01:10.034Z,28.30
2022-10-14T01:03:36.565Z,30.80
2022-10-14T01:06:50.708Z,31.50
2022-10-14T01:09:36.098Z,26.30
2022-10-14T01:12:35.361Z,31.60
2022-10-14T01:15:34.730Z,30.30
2022-10-14T01:18:38.249Z,28.20
2022-10-14T01:21:11.673Z,33.00
2022-10-14T01:24:05.926Z,29.20
2022-10-14T01:27:16.092Z,30.10
2022-10-14T01:30:02.711Z,32.60
2022-10-14T01:33:06.052Z,29.50
2022-10-14T01:36:04.547Z,28.50
2022-10-14T01:38:52.787Z,31.60
2022-10-14T01:41:28.114Z,29.50
2022-10-14T01:44:00.247Z,28.80
2022-10-14T01:46:28.403Z,31.20
2022-10-14T01:49:03.146Z,32.20
2022-10-14T01:51:43.942Z,27.90
2022-10-14T01:54:18.039Z,27.60
2022-10-14T01:56:47.826Z,26.60
2022-10-14T01:59:18.521Z,25.70
2022-10-14T02:01:44.974Z,27.60
2022-10-14T02:04:21.521Z,32.40
2022-10-14T02:07:04.826Z,34.70
2022-10-14T02:09:53.343Z,30.60
2022-10-14T02:12:38.666Z,31.80
2022-10-14T02:15:30.986Z,30.10
2022-10-14T02:18:20.714Z,31.80
2022-10-14T02:21:08.863Z,33.90
2022-10-14T02:23:42.916Z,33.90
2022-10-14T02:26:10.212Z,33.10
2022-10-14T02:28:39.692Z,31.50
2022-10-14T02:31:13.376Z,31.80
2022-10-14T02:33:45.215Z,32.80
2022-10-14T02:36:15.801Z,28.90
2022-10-14T02:38:43.448Z,29.10
2022-10-14T02:41:15.746Z,30.90
2022-10-14T02:43:42.182Z,32.00
2022-10-14T02:46:08.689Z,33.20
2022-10-14T02:48:35.159Z,29.80
2022-10-14T02:51:01.593Z,31.80
2022-10-14T02:53:28.078Z,28.90
2022-10-14T02:55:54.471Z,31.60
2022-10-14T02:58:20.962Z,33.00
2022-10-14T03:00:49.847Z,31.20
2022-10-14T03:03:16.269Z,30.30
2022-10-14T03:05:43.161Z,31.80
2022-10-14T03:08:09.736Z,36.30
2022-10-14T03:10:36.114Z,34.50
2022-10-14T03:13:02.637Z,45.30
2022-10-14T03:15:29.171Z,30.80
2022-10-14T03:17:55.928Z,35.00
2022-10-14T03:20:22.365Z,31.20
2022-10-14T03:22:48.797Z,35.20
2022-10-14T03:25:15.905Z,35.10
2022-10-14T03:27:42.543Z,33.50
2022-10-14T03:30:09.339Z,33.10
2022-10-14T03:32:35.755Z,33.90
2022-10-14T03:35:02.138Z,34.30
2022-10-14T03:37:28.680Z,35.00
2022-10-14T03:39:55.107Z,33.40
2022-10-14T03:42:21.742Z,38.00
2022-10-14T03:44:48.304Z,32.10
2022-10-14T03:47:15.125Z,30.70
2022-10-14T03:49:41.585Z,33.40
2022-10-14T03:52:08.020Z,37.00
2022-10-14T03:54:34.434Z,33.80
2022-10-14T03:57:00.826Z,33.80
2022-10-14T03:59:27.325Z,32.60
2022-10-14T04:01:53.905Z,33.80
2022-10-14T04:04:20.492Z,31.80
2022-10-14T04:06:46.994Z,31.40
2022-10-14T04:09:13.528Z,33.20
2022-10-14T04:11:39.968Z,31.80
2022-10-14T04:14:06.370Z,38.20
2022-10-14T04:16:32.882Z,38.90
2022-10-14T04:18:59.508Z,35.50
2022-10-14T04:21:25.889Z,38.70
2022-10-14T04:23:52.318Z,36.30
2022-10-14T04:26:18.992Z,33.50
2022-10-14T04:28:45.613Z,30.10
2022-10-14T04:31:12.178Z,35.60
2022-10-14T04:33:38.622Z,32.70
2022-10-14T04:36:06.787Z,32.00
2022-10-14T04:38:34.019Z,29.80
2022-10-14T04:41:00.703Z,31.90
2022-10-14T04:43:27.143Z,35.10
2022-10-14T04:45:54.359Z,29.30
2022-10-14T04:48:20.980Z,33.40
2022-10-14T04:50:52.057Z,38.20
2022-10-14T04:53:22.094Z,35.20
2022-10-14T04:55:50.126Z,28.80
2022-10-14T04:58:16.990Z,37.90
2022-10-14T05:00:43.847Z,37.70
2022-10-14T05:03:10.277Z,30.90
2022-10-14T05:05:36.745Z,31.20
2022-10-14T05:08:03.448Z,31.90
2022-10-14T05:10:30.026Z,30.10
2022-10-14T05:12:56.740Z,29.80
2022-10-14T05:15:23.346Z,30.20
2022-10-14T05:17:49.757Z,32.20
2022-10-14T05:20:16.255Z,36.20
2022-10-14T05:22:45.678Z,40.40
2022-10-14T05:25:12.307Z,34.10
2022-10-14T05:27:39.041Z,32.20
2022-10-14T05:30:06.196Z,38.80
2022-10-14T05:32:32.754Z,39.10
2022-10-14T05:34:59.186Z,37.00
2022-10-14T05:37:25.701Z,36.60
2022-10-14T05:39:52.166Z,38.00
2022-10-14T05:42:18.875Z,65.80
2022-10-14T05:44:45.425Z,42.90
2022-10-14T05:47:11.987Z,51.80
2022-10-14T05:49:38.545Z,51.90
2022-10-14T05:52:05.344Z,50.10
2022-10-14T05:54:31.747Z,52.20
2022-10-14T05:56:58.321Z,49.30
2022-10-14T05:59:24.793Z,53.30
2022-10-14T06:01:51.310Z,53.00
2022-10-14T06:04:19.976Z,51.90
2022-10-14T06:06:46.604Z,50.60
2022-10-14T06:09:13.767Z,52.30
2022-10-14T06:11:40.721Z,47.20
2022-10-14T06:14:07.725Z,46.60
2022-10-14T06:16:34.578Z,42.90
2022-10-14T06:19:01.466Z,49.50
2022-10-14T06:21:27.951Z,43.70
2022-10-14T06:23:54.559Z,45.10
2022-10-14T06:26:21.089Z,45.40
2022-10-14T06:28:47.789Z,49.70
2022-10-14T06:31:14.412Z,51.10
2022-10-14T06:33:41.359Z,45.20
2022-10-14T06:36:09.465Z,42.90
2022-10-14T06:38:35.877Z,48.40
2022-10-14T06:41:02.382Z,53.80
2022-10-14T06:43:28.779Z,55.20
2022-10-14T06:45:58.446Z,52.20
2022-10-14T06:48:24.924Z,49.70
2022-10-14T06:50:52.283Z,47.50
2022-10-14T06:53:18.982Z,45.00
2022-10-14T06:55:45.411Z,46.40
2022-10-14T06:58:12.691Z,44.70
2022-10-14T07:00:40.653Z,41.60
2022-10-14T07:03:08.649Z,44.40
2022-10-14T07:05:36.014Z,44.90
2022-10-14T07:08:02.478Z,44.20
2022-10-14T07:10:28.875Z,43.60
2022-10-14T07:12:56.253Z,41.20
2022-10-14T07:15:23.139Z,45.20
2022-10-14T07:17:49.648Z,39.90
2022-10-14T07:20:16.221Z,43.10
2022-10-14T07:22:42.777Z,41.10
2022-10-14T07:25:09.970Z,44.30
2022-10-14T07:27:36.610Z,44.90
2022-10-14T07:30:05.605Z,46.20
2022-10-14T07:32:34.489Z,50.20
2022-10-14T07:35:00.892Z,45.80
2022-10-14T07:37:27.303Z,53.60
2022-10-14T07:39:53.704Z,50.40
2022-10-14T07:44:54.009Z,51.80
2022-10-14T07:47:21.643Z,47.90
2022-10-14T07:49:48.397Z,44.10
2022-10-14T07:52:15.810Z,39.50
2022-10-14T07:54:42.305Z,44.50
2022-10-14T07:57:08.742Z,50.30
2022-10-14T07:59:35.145Z,44.10
2022-10-14T08:02:01.772Z,44.40
2022-10-14T08:04:28.206Z,44.30
2022-10-14T08:06:54.620Z,48.20
2022-10-14T08:09:21.608Z,41.90
2022-10-14T08:11:48.709Z,46.10
2022-10-14T08:14:15.784Z,44.90
2022-10-14T08:16:42.228Z,52.80
2022-10-14T08:19:14.533Z,51.80
2022-10-14T08:21:43.757Z,51.80
2022-10-14T08:24:11.035Z,51.50
2022-10-14T08:26:51.149Z,47.40
2022-10-14T08:29:17.862Z,45.60
2022-10-14T08:31:44.435Z,46.40
2022-10-14T08:34:11.614Z,44.70
2022-10-14T08:36:38.126Z,44.80
2022-10-14T08:39:05.584Z,45.60
2022-10-14T08:41:56.414Z,46.70
2022-10-14T08:44:51.087Z,46.80
2022-10-14T08:47:26.650Z,43.30
2022-10-14T08:50:18.727Z,45.50
2022-10-14T08:53:10.600Z,43.80
2022-10-14T08:55:53.037Z,41.90
2022-10-14T08:58:41.290Z,43.60
2022-10-14T09:01:28.964Z,47.20
2022-10-14T09:04:04.151Z,43.60
2022-10-14T09:06:38.697Z,42.80
2022-10-14T09:09:15.617Z,41.00
2022-10-14T09:11:46.805Z,41.70
2022-10-14T09:14:21.160Z,43.00
2022-10-14T09:16:54.344Z,43.40
2022-10-14T09:19:34.706Z,39.90
2022-10-14T09:22:02.372Z,37.90
2022-10-14T09:24:37.573Z,43.40
2022-10-14T09:27:15.371Z,44.00
2022-10-14T09:29:47.670Z,41.20
2022-10-14T09:32:39.453Z,44.10
2022-10-14T09:35:34.512Z,41.30
2022-10-14T09:38:01.465Z,38.80
2022-10-14T09:40:34.038Z,36.20
2022-10-14T09:43:10.420Z,40.00
2022-10-14T09:45:57.946Z,44.90
2022-10-14T09:48:38.678Z,48.20
2022-10-14T09:51:21.353Z,44.70
2022-10-14T09:53:53.134Z,43.80
2022-10-14T09:56:39.034Z,42.70
2022-10-14T09:59:20.144Z,42.70
2022-10-14T10:02:18.904Z,39.40
2022-10-14T10:04:47.501Z,39.80
2022-10-14T10:07:30.537Z,42.70
2022-10-14T10:10:05.035Z,41.80
2022-10-14T10:12:35.536Z,40.90
2022-10-14T10:15:06.249Z,42.00
2022-10-14T10:17:40.900Z,42.10
2022-10-14T10:20:31.959Z,40.00
2022-10-14T10:23:26.894Z,40.40
2022-10-14T10:25:53.326Z,38.60
2022-10-14T10:28:32.422Z,36.10
2022-10-14T10:31:14.147Z,39.70
2022-10-14T10:34:18.279Z,35.90
2022-10-14T10:37:05.048Z,41.50
2022-10-14T10:39:58.612Z,39.70
2022-10-14T10:42:51.461Z,38.40
2022-10-14T10:45:36.601Z,38.40
2022-10-14T10:48:24.475Z,35.40
2022-10-14T10:50:55.950Z,35.00
2022-10-14T10:54:12.397Z,38.40
2022-10-14T10:56:48.855Z,37.80
2022-10-14T10:59:40.073Z,36.70
2022-10-14T11:02:12.374Z,38.10
2022-10-14T11:04:54.324Z,35.20
2022-10-14T11:08:05.872Z,38.50
2022-10-14T11:11:09.372Z,38.40
2022-10-14T11:14:10.117Z,37.60
2022-10-14T11:16:54.244Z,35.20
2022-10-14T11:19:48.580Z,33.60
2022-10-14T11:22:39.097Z,34.50
2022-10-14T11:25:46.261Z,35.00
2022-10-14T11:28:57.393Z,35.20
2022-10-14T11:31:51.293Z,35.00
2022-10-14T11:34:42.913Z,32.10
2022-10-14T11:37:21.654Z,29.30
2022-10-14T11:40:18.366Z,29.80
2022-10-14T11:43:13.521Z,32.40
2022-10-14T11:45:55.040Z,39.30
2022-10-14T11:48:47.949Z,33.10
2022-10-14T11:51:51.005Z,33.90
2022-10-14T11:54:30.701Z,27.70
2022-10-14T11:57:04.524Z,32.30
2022-10-14T12:00:00.538Z,28.40
2022-10-14T12:02:54.204Z,33.00
2022-10-14T12:05:47.665Z,36.30
2022-10-14T12:08:29.393Z,36.70
2022-10-14T12:11:09.287Z,32.10
2022-10-14T12:13:52.210Z,46.10
2022-10-14T12:16:22.848Z,51.50
2022-10-14T12:18:55.377Z,48.70
2022-10-14T12:21:46.861Z,36.00
2022-10-14T12:24:24.226Z,47.60
2022-10-14T12:26:57.738Z,44.50
2022-10-14T12:29:52.224Z,38.20
2022-10-14T12:32:30.747Z,29.30
2022-10-14T12:35:01.683Z,30.00
2022-10-14T12:37:35.187Z,34.60
2022-10-14T12:40:02.082Z,29.40
2022-10-14T12:42:31.175Z,27.60
2022-10-14T12:45:01.722Z,26.70
2022-10-14T12:47:36.032Z,35.80
2022-10-14T12:50:15.519Z,32.30
2022-10-14T12:52:48.161Z,30.60
2022-10-14T12:55:19.988Z,28.70
2022-10-14T12:57:56.237Z,28.30
2022-10-14T13:00:22.648Z,30.20
2022-10-14T13:02:53.633Z,26.90
2022-10-14T13:05:43.049Z,26.50
2022-10-14T13:08:15.552Z,26.30
2022-10-14T13:11:11.274Z,25.30
2022-10-14T13:13:52.141Z,26.20
2022-10-14T13:16:21.322Z,28.30
2022-10-14T13:18:52.526Z,26.80
2022-10-14T13:21:34.325Z,26.30
2022-10-14T13:24:27.358Z,27.60
2022-10-14T13:26:53.857Z,30.40
2022-10-14T13:29:20.197Z,27.90
2022-10-14T13:31:59.996Z,29.70
2022-10-14T13:35:02.330Z,24.80
2022-10-14T13:37:46.183Z,28.50
2022-10-14T13:40:53.021Z,30.20
2022-10-14T13:43:28.679Z,26.00
2022-10-14T13:46:05.646Z,29.60
2022-10-14T13:48:37.225Z,28.50
2022-10-14T13:51:31.702Z,39.50
2022-10-14T13:54:11.573Z,28.70
2022-10-14T13:56:38.026Z,25.30
2022-10-14T13:59:43.487Z,23.70
2022-10-14T14:02:24.426Z,24.70
2022-10-14T14:04:55.774Z,26.00
2022-10-14T14:08:21.818Z,24.20
2022-10-14T14:10:22.478Z,23.40
2022-10-14T14:12:50.366Z,24.20
2022-10-14T14:15:29.240Z,23.20
2022-10-14T14:17:55.709Z,28.00
2022-10-14T14:20:28.310Z,30.80
2022-10-14T14:22:58.910Z,28.00
2022-10-14T14:25:35.006Z,30.20
2022-10-14T14:28:05.999Z,31.40
2022-10-14T14:30:39.144Z,30.50
2022-10-14T14:33:16.632Z,30.00
2022-10-14T14:35:55.451Z,32.60
2022-10-14T14:38:31.093Z,31.80
2022-10-14T14:41:14.772Z,31.60
2022-10-14T14:43:47.364Z,31.50
2022-10-14T14:46:40.838Z,33.30
2022-10-14T14:49:15.238Z,34.10
2022-10-14T14:51:42.977Z,41.70
2022-10-14T14:54:19.784Z,54.30
2022-10-14T14:57:02.116Z,55.60
2022-10-14T14:59:44.163Z,58.70
2022-10-14T15:02:19.984Z,55.80
2022-10-14T15:04:50.128Z,68.00
2022-10-14T15:07:23.946Z,67.30
2022-10-14T15:09:58.458Z,64.20
2022-10-14T15:12:30.760Z,67.70
2022-10-14T15:15:00.437Z,65.20
2022-10-14T15:17:37.739Z,67.00
2022-10-14T15:20:04.284Z,62.70
2022-10-14T15:22:40.198Z,58.40
2022-10-14T15:25:25.420Z,65.00
2022-10-14T15:27:57.914Z,64.10
2022-10-14T15:30:39.621Z,66.20
2022-10-14T15:33:23.328Z,67.60
2022-10-14T15:36:03.539Z,73.80
2022-10-14T15:41:05.431Z,74.20
2022-10-14T15:43:33.750Z,83.10
2022-10-14T15:46:19.295Z,67.50
2022-10-14T15:48:57.455Z,74.10
2022-10-14T15:51:30.549Z,75.30
2022-10-14T15:53:58.025Z,71.60
2022-10-14T15:56:24.458Z,74.00
2022-10-14T15:58:50.943Z,80.70
2022-10-14T16:01:21.175Z,77.30
2022-10-14T16:03:50.030Z,103.30
2022-10-14T16:06:17.092Z,102.90
2022-10-14T16:08:43.589Z,110.50
2022-10-14T16:11:24.234Z,104.20
2022-10-14T16:13:50.757Z,96.30
2022-10-14T16:16:26.855Z,87.10
2022-10-14T16:18:54.155Z,90.40
2022-10-14T16:21:20.568Z,87.50
2022-10-14T16:23:47.183Z,96.30
2022-10-14T16:26:14.379Z,92.20
2022-10-14T16:28:40.949Z,103.40
2022-10-14T16:31:14.161Z,96.00
2022-10-14T16:33:44.726Z,83.90
2022-10-14T16:36:15.521Z,92.20
2022-10-14T16:38:42.119Z,95.10
2022-10-14T16:41:11.739Z,93.90
2022-10-14T16:43:38.631Z,85.90
2022-10-14T16:46:07.526Z,95.50
2022-10-14T16:48:36.005Z,98.80
2022-10-14T16:51:03.201Z,95.60
2022-10-14T16:53:48.840Z,91.30
2022-10-14T16:56:38.691Z,93.50
2022-10-14T16:59:07.563Z,86.30
2022-10-14T17:01:34.889Z,80.00
2022-10-14T17:04:01.443Z,82.50
2022-10-14T17:06:28.139Z,84.80
2022-10-14T17:08:54.743Z,89.10
2022-10-14T17:11:21.287Z,88.00
2022-10-14T17:13:52.355Z,113.30
2022-10-14T17:16:18.968Z,172.50
2022-10-14T17:18:46.678Z,173.40
2022-10-14T17:21:13.579Z,169.80
2022-10-14T17:23:42.773Z,73.40
2022-10-14T17:26:16.072Z,226.50
2022-10-14T17:28:43.055Z,151.90
2022-10-14T17:31:19.334Z,134.00
2022-10-14T17:33:46.228Z,90.60
2022-10-14T17:36:27.793Z,116.10
2022-10-14T17:38:57.161Z,124.50
2022-10-14T17:41:27.186Z,132.10
2022-10-14T17:43:56.871Z,114.00
2022-10-14T17:46:27.049Z,90.00
2022-10-14T17:48:57.170Z,102.50
2022-10-14T17:51:28.203Z,129.70
2022-10-14T17:54:01.463Z,112.30
2022-10-14T17:56:30.526Z,110.20
2022-10-14T17:59:00.893Z,135.90
2022-10-14T18:01:37.899Z,136.40
2022-10-14T18:04:16.392Z,110.90
2022-10-14T18:06:45.369Z,108.90
2022-10-14T18:09:12.669Z,130.40
2022-10-14T18:12:07.794Z,115.90
2022-10-14T18:14:29.760Z,104.60
2022-10-14T18:16:56.134Z,103.10
2022-10-14T18:19:22.608Z,95.50
2022-10-14T18:21:49.011Z,98.60
2022-10-14T18:24:15.442Z,100.70
2022-10-14T18:26:41.985Z,123.70
2022-10-14T18:29:09.298Z,116.70
2022-10-14T18:31:36.699Z,108.90
2022-10-14T18:34:03.532Z,96.40
2022-10-14T18:36:33.092Z,100.70
2022-10-14T18:39:04.547Z,97.40
2022-10-14T18:41:31.147Z,89.60
2022-10-14T18:43:58.476Z,82.20
2022-10-14T18:46:37.017Z,86.40
2022-10-14T18:49:06.919Z,89.50
2022-10-14T18:51:37.122Z,92.40
2022-10-14T18:54:12.950Z,91.30
2022-10-14T18:56:39.492Z,87.80
2022-10-14T18:59:11.004Z,95.40
2022-10-14T19:01:39.322Z,93.90
2022-10-14T19:04:08.612Z,100.90
2022-10-14T19:06:35.813Z,122.60
2022-10-14T19:09:03.789Z,125.00
2022-10-14T19:11:32.821Z,128.20
2022-10-14T19:14:05.191Z,123.50
2022-10-14T19:16:36.056Z,115.00
2022-10-14T19:19:11.992Z,104.40
2022-10-14T19:21:39.220Z,98.10
2022-10-14T19:24:08.037Z,102.10
2022-10-14T19:26:38.289Z,92.60
2022-10-14T19:29:10.456Z,84.30
2022-10-14T19:31:39.561Z,78.70
2022-10-14T19:34:10.178Z,87.50
2022-10-14T19:36:39.173Z,80.70
2022-10-14T19:39:08.907Z,80.10
2022-10-14T19:41:43.146Z,85.40
2022-10-14T19:44:11.757Z,81.80
2022-10-14T19:46:39.112Z,77.90
2022-10-14T19:49:06.218Z,79.20
2022-10-14T19:51:34.957Z,77.60
2022-10-14T19:54:02.033Z,79.10
2022-10-14T19:56:29.062Z,69.90
2022-10-14T19:58:58.367Z,73.40
2022-10-14T20:01:28.564Z,79.50
2022-10-14T20:03:56.031Z,73.30
2022-10-14T20:06:23.675Z,72.50
2022-10-14T20:08:51.282Z,74.10
2022-10-14T20:11:21.257Z,106.20
2022-10-14T20:13:48.543Z,139.20
2022-10-14T20:16:15.140Z,133.70
2022-10-14T20:18:42.182Z,162.30
2022-10-14T20:21:12.541Z,137.30
2022-10-14T20:23:39.705Z,142.60
2022-10-14T20:26:11.085Z,136.70
2022-10-14T20:28:38.849Z,130.40
2022-10-14T20:31:10.900Z,131.10
2022-10-14T20:33:37.547Z,133.20
2022-10-14T20:36:08.433Z,125.50
2022-10-14T20:38:38.517Z,126.10
2022-10-14T20:41:14.998Z,117.90
2022-10-14T20:43:43.114Z,114.80
2022-10-14T20:46:10.287Z,94.20
2022-10-14T20:48:39.883Z,100.30
2022-10-14T20:51:13.158Z,92.80
2022-10-14T20:56:13.089Z,90.60
2022-10-14T20:58:40.801Z,84.10
2022-10-14T21:01:16.691Z,82.20
2022-10-14T21:03:46.014Z,94.60
2022-10-14T21:06:17.515Z,93.00
2022-10-14T21:08:44.707Z,91.50
2022-10-14T21:11:15.794Z,87.60
2022-10-14T21:13:48.622Z,81.80
2022-10-14T21:16:29.872Z,80.00
2022-10-14T21:19:06.998Z,87.40
2022-10-14T21:21:39.989Z,81.40
2022-10-14T21:24:08.783Z,77.40
2022-10-14T21:26:35.216Z,81.80
2022-10-14T21:29:02.756Z,104.40
2022-10-14T21:31:30.346Z,76.80
2022-10-14T21:34:04.412Z,93.30
2022-10-14T21:36:33.443Z,75.70
2022-10-14T21:39:01.463Z,75.30
2022-10-14T21:41:28.311Z,77.00
2022-10-14T21:43:59.212Z,75.40
2022-10-14T21:46:26.743Z,72.60
2022-10-14T21:48:57.124Z,77.80
2022-10-14T21:51:25.962Z,75.80
2022-10-14T21:53:52.625Z,79.80
2022-10-14T21:56:19.921Z,70.80
2022-10-14T21:58:46.435Z,76.90
2022-10-14T22:01:18.479Z,74.10
2022-10-14T22:03:45.080Z,66.70
2022-10-14T22:06:16.741Z,67.90
2022-10-14T22:08:48.571Z,62.50
2022-10-14T22:11:31.043Z,63.70
2022-10-14T22:14:00.355Z,63.10
2022-10-14T22:16:29.160Z,68.80
2022-10-14T22:18:59.834Z,63.10
2022-10-14T22:21:29.571Z,70.00
2022-10-14T22:23:56.105Z,65.30
2022-10-14T22:26:24.707Z,62.10
2022-10-14T22:29:02.252Z,59.40
2022-10-14T22:31:32.700Z,62.80
2022-10-14T22:34:00.804Z,61.50
2022-10-14T22:36:29.662Z,62.50
2022-10-14T22:38:58.600Z,60.70
2022-10-14T22:41:28.805Z,64.70
2022-10-14T22:43:59.219Z,60.30
2022-10-14T22:46:29.754Z,62.20
2022-10-14T22:48:58.378Z,66.30
2022-10-14T22:51:29.315Z,73.10
2022-10-14T22:53:56.037Z,71.40
2022-10-14T22:56:25.801Z,78.70
2022-10-14T22:58:57.474Z,65.90
2022-10-14T23:01:27.566Z,64.30
2022-10-14T23:03:56.263Z,63.90
2022-10-14T23:06:23.025Z,68.10
2022-10-14T23:08:49.640Z,64.40
2022-10-14T23:11:19.740Z,71.90
2022-10-14T23:13:46.237Z,62.40
2022-10-14T23:16:18.067Z,67.40
2022-10-14T23:18:45.905Z,61.50
2022-10-14T23:21:31.415Z,66.90
2022-10-14T23:24:01.939Z,65.30
2022-10-14T23:26:33.135Z,60.90
2022-10-14T23:29:03.915Z,61.50
2022-10-14T23:31:33.578Z,66.30
2022-10-14T23:34:05.016Z,68.10
2022-10-14T23:36:31.599Z,64.60
2022-10-14T23:38:59.128Z,68.50
2022-10-14T23:41:26.097Z,64.80
2022-10-14T23:43:52.940Z,66.40
2022-10-14T23:46:20.520Z,62.40
2022-10-14T23:48:55.477Z,60.50
2022-10-14T23:51:33.625Z,58.50
2022-10-14T23:54:00.021Z,57.10
2022-10-14T23:56:26.430Z,61.20
2022-10-14T23:58:52.858Z,62.70
